Time;durP1;ratioP1;P1;durP2;ratioP2;P2;SDS_P1;SDS_P2;PMS_P1;PMS_P2;Temp;Humidity;BMP_temperature;BMP_pressure;BME280_temperature;BME280_humidity;BME280_pressure;Samples;Min_cycle;Max_cycle;Signal;HPM_P1;HPM_P2
2023/11/08 00:01:39;;;;;;;5.50;1.30;;;7.40;99.90;;;;;;7512057;19;21182;-75
2023/11/08 00:04:11;;;;;;;4.28;1.67;;;7.40;99.90;;;;;;7531429;19;20037;-72
2023/11/08 00:06:44;;;;;;;3.60;1.80;;;7.30;99.90;;;;;;7528317;19;21494;-75
2023/11/08 00:09:16;;;;;;;5.60;1.40;;;7.30;99.90;;;;;;7523015;19;20451;-74
2023/11/08 00:11:49;;;;;;;5.33;1.50;;;7.20;99.90;;;;;;7519005;19;20023;-75
2023/11/08 00:14:22;;;;;;;5.68;1.55;;;7.20;99.90;;;;;;7523964;19;20019;-75
2023/11/08 00:16:56;;;;;;;4.50;1.40;;;7.10;99.90;;;;;;7517866;19;21526;-75
2023/11/08 00:19:29;;;;;;;4.10;1.60;;;7.00;99.90;;;;;;7525741;19;20074;-75
2023/11/08 00:22:02;;;;;;;1.17;0.95;;;7.00;99.90;;;;;;7537056;19;20026;-75
2023/11/08 00:24:34;;;;;;;6.13;2.08;;;7.10;99.90;;;;;;7520114;19;20011;-75
2023/11/08 00:27:07;;;;;;;4.80;1.83;;;6.90;99.90;;;;;;7519031;19;20428;-74
2023/11/08 00:29:40;;;;;;;5.65;1.80;;;7.00;99.90;;;;;;7512529;19;20053;-74
2023/11/08 00:32:13;;;;;;;6.25;1.88;;;6.80;99.90;;;;;;7525631;19;20011;-75
2023/11/08 00:34:45;;;;;;;3.10;1.67;;;6.70;99.90;;;;;;7514909;19;20006;-73
2023/11/08 00:37:21;;;;;;;8.02;4.97;;;6.80;99.90;;;;;;7506348;19;21520;-73
2023/11/08 00:39:53;;;;;;;4.05;2.00;;;6.70;99.90;;;;;;7525157;19;20041;-73
2023/11/08 00:42:26;;;;;;;3.00;1.58;;;6.60;99.90;;;;;;7534182;19;20014;-73
2023/11/08 00:44:58;;;;;;;5.00;1.83;;;6.60;99.90;;;;;;7522980;19;20056;-73
2023/11/08 00:47:30;;;;;;;3.65;1.70;;;6.40;99.90;;;;;;7522822;19;20046;-73
2023/11/08 00:50:04;;;;;;;6.88;1.90;;;6.50;99.90;;;;;;7491001;19;20042;-73
2023/11/08 00:52:37;;;;;;;6.00;1.80;;;6.50;99.90;;;;;;7449609;19;21064;-73
2023/11/08 00:55:10;;;;;;;3.03;1.65;;;6.40;99.90;;;;;;7534352;19;20014;-73
2023/11/08 00:57:42;;;;;;;4.28;1.80;;;6.40;99.90;;;;;;7538873;19;20018;-74
2023/11/08 01:00:16;;;;;;;4.43;1.83;;;6.40;99.90;;;;;;7526595;19;20015;-74
2023/11/08 01:02:48;;;;;;;3.67;1.95;;;6.40;99.90;;;;;;7533264;19;20026;-71
2023/11/08 01:05:21;;;;;;;3.30;1.70;;;6.40;99.90;;;;;;7533758;19;20010;-72
2023/11/08 01:07:54;;;;;;;5.40;1.40;;;6.40;99.90;;;;;;7475354;19;20838;-72
2023/11/08 01:10:26;;;;;;;3.83;1.80;;;6.30;99.90;;;;;;7466483;19;20155;-73
2023/11/08 01:12:59;;;;;;;3.35;1.63;;;6.30;99.90;;;;;;7522967;19;20023;-72
2023/11/08 01:15:31;;;;;;;4.80;2.00;;;6.20;99.90;;;;;;7524180;19;20014;-72
2023/11/08 01:18:03;;;;;;;3.70;1.52;;;6.20;99.90;;;;;;7522953;19;20074;-72
2023/11/08 01:20:37;;;;;;;4.55;1.67;;;6.30;99.90;;;;;;7539750;19;21597;-73
2023/11/08 01:23:10;;;;;;;4.10;1.52;;;6.20;99.90;;;;;;7521643;19;20098;-73
2023/11/08 01:25:43;;;;;;;4.78;1.77;;;6.10;99.90;;;;;;7516281;19;20598;-72
2023/11/08 01:28:15;;;;;;;5.43;1.40;;;6.10;99.90;;;;;;7519441;19;20014;-73
2023/11/08 01:30:48;;;;;;;3.03;1.65;;;6.10;99.90;;;;;;7504244;19;20379;-73
2023/11/08 01:33:23;;;;;;;2.65;1.48;;;6.10;99.90;;;;;;7520590;19;20048;-73
2023/11/08 01:35:56;;;;;;;7.00;1.63;;;6.00;99.90;;;;;;7528711;19;20045;-73
2023/11/08 01:38:28;;;;;;;4.60;1.40;;;6.00;99.90;;;;;;7516928;19;20037;-73
2023/11/08 01:41:01;;;;;;;6.88;1.48;;;6.00;99.90;;;;;;7520851;19;20044;-72
2023/11/08 01:43:34;;;;;;;2.22;1.40;;;6.00;99.90;;;;;;7532782;19;20014;-73
2023/11/08 01:46:09;;;;;;;;;;;5.90;99.90;;;;;;7526302;19;20018;-74
2023/11/08 01:48:41;;;;;;;4.03;1.20;;;6.00;99.90;;;;;;7536007;19;19911;-73
2023/11/08 01:51:15;;;;;;;3.60;1.17;;;6.00;99.90;;;;;;7533539;19;21481;-74
2023/11/08 01:53:50;;;;;;;3.78;1.55;;;6.10;99.90;;;;;;7531363;19;20048;-72
2023/11/08 01:56:23;;;;;;;2.72;1.52;;;6.20;99.90;;;;;;7519046;19;20025;-75
2023/11/08 01:58:57;;;;;;;3.58;1.50;;;6.10;99.90;;;;;;7517554;19;20014;-71
2023/11/08 02:01:31;;;;;;;6.85;1.40;;;6.00;99.90;;;;;;7527424;19;21282;-73
2023/11/08 02:04:04;;;;;;;2.00;1.35;;;6.10;99.90;;;;;;7512956;19;20081;-72
2023/11/08 02:06:36;;;;;;;3.90;1.30;;;6.20;99.90;;;;;;7532887;19;20026;-72
2023/11/08 02:09:10;;;;;;;8.25;1.48;;;6.20;99.90;;;;;;7466002;19;20271;-72
2023/11/08 02:11:43;;;;;;;5.60;1.58;;;6.10;99.90;;;;;;7522426;19;20021;-72
2023/11/08 02:14:16;;;;;;;2.03;1.30;;;6.00;99.90;;;;;;7534063;19;20018;-72
2023/11/08 02:16:49;;;;;;;;;;;6.00;99.90;;;;;;7513207;19;20018;-73
2023/11/08 02:19:23;;;;;;;2.70;1.38;;;6.10;99.90;;;;;;7527322;19;19926;-72
2023/11/08 02:21:55;;;;;;;2.60;1.15;;;6.10;99.90;;;;;;7520941;19;20017;-72
2023/11/08 02:24:28;;;;;;;2.40;1.25;;;6.20;99.90;;;;;;7539273;19;20018;-72
2023/11/08 02:27:00;;;;;;;4.55;1.20;;;6.10;99.90;;;;;;7536666;19;20531;-73
2023/11/08 02:29:33;;;;;;;7.55;1.52;;;6.00;99.90;;;;;;7525583;19;20010;-72
2023/11/08 02:32:08;;;;;;;3.30;1.33;;;6.00;99.90;;;;;;7512000;19;20030;-73
2023/11/08 02:34:41;;;;;;;3.15;1.20;;;6.10;99.90;;;;;;7550352;19;20094;-73
2023/11/08 02:37:15;;;;;;;3.43;1.37;;;6.10;99.90;;;;;;7539316;19;20026;-72
2023/11/08 02:39:48;;;;;;;8.52;1.40;;;6.00;99.90;;;;;;7549204;19;20286;-74
2023/11/08 02:42:21;;;;;;;10.85;1.67;;;6.00;99.90;;;;;;7524118;19;20018;-73
2023/11/08 02:44:54;;;;;;;2.90;1.45;;;6.00;99.90;;;;;;7532181;19;20014;-73
2023/11/08 02:47:27;;;;;;;3.80;1.20;;;5.90;99.90;;;;;;7533965;19;21837;-73
2023/11/08 02:49:59;;;;;;;10.02;2.13;;;5.90;99.90;;;;;;7527509;19;20011;-73
2023/11/08 02:52:32;;;;;;;4.13;1.30;;;5.80;99.90;;;;;;7542592;19;22005;-72
2023/11/08 02:55:05;;;;;;;3.92;1.50;;;5.80;99.90;;;;;;7542710;19;20114;-75
2023/11/08 02:57:37;;;;;;;4.10;1.93;;;5.70;99.90;;;;;;7544333;19;20010;-72
2023/11/08 03:00:10;;;;;;;1.55;1.30;;;5.60;99.90;;;;;;7543766;19;20283;-72
2023/11/08 03:02:43;;;;;;;3.88;1.52;;;5.70;99.90;;;;;;7539406;19;20106;-72
2023/11/08 03:05:21;;;;;;;11.35;1.92;;;5.60;99.90;;;;;;7542861;19;20018;-73
2023/11/08 03:07:54;;;;;;;12.38;1.83;;;5.60;99.90;;;;;;7545096;19;20033;-72
2023/11/08 03:10:27;;;;;;;3.38;1.85;;;5.50;99.90;;;;;;7528165;19;20036;-72
2023/11/08 03:13:00;;;;;;;5.95;1.48;;;5.40;99.90;;;;;;7518221;19;21087;-72
2023/11/08 03:15:33;;;;;;;3.30;1.73;;;5.30;99.90;;;;;;7531930;19;20677;-72
2023/11/08 03:18:06;;;;;;;4.47;1.67;;;5.40;99.90;;;;;;7549314;19;20907;-71
2023/11/08 03:20:38;;;;;;;4.05;1.20;;;5.30;99.90;;;;;;7542030;19;20021;-72
2023/11/08 03:23:12;;;;;;;2.33;1.15;;;5.20;99.90;;;;;;7541503;19;20067;-73
2023/11/08 03:25:44;;;;;;;5.13;1.53;;;5.30;99.90;;;;;;7540760;19;20011;-73
2023/11/08 03:28:17;;;;;;;2.80;1.45;;;5.30;99.90;;;;;;7544202;19;20022;-72
2023/11/08 03:30:49;;;;;;;4.57;1.50;;;5.20;99.90;;;;;;7533611;19;20010;-73
2023/11/08 03:33:22;;;;;;;3.05;1.33;;;5.20;99.90;;;;;;7499676;19;20037;-73
2023/11/08 03:35:55;;;;;;;8.25;2.78;;;5.10;99.90;;;;;;7538554;19;20059;-73
2023/11/08 03:38:27;;;;;;;4.13;1.80;;;5.20;99.90;;;;;;7547242;19;20391;-73
2023/11/08 03:41:01;;;;;;;3.45;1.20;;;5.10;99.90;;;;;;7543740;19;20136;-73
2023/11/08 03:43:33;;;;;;;5.53;1.88;;;5.20;99.90;;;;;;7521130;19;20014;-72
2023/11/08 03:46:05;;;;;;;4.00;1.50;;;5.10;99.90;;;;;;7514933;19;20106;-72
2023/11/08 03:48:38;;;;;;;2.63;1.30;;;5.00;99.90;;;;;;7525687;19;20018;-72
2023/11/08 03:51:11;;;;;;;2.58;1.40;;;5.00;99.90;;;;;;7527172;19;20019;-72
2023/11/08 03:53:43;;;;;;;4.10;1.58;;;5.00;99.90;;;;;;7522234;19;20053;-72
2023/11/08 03:56:17;;;;;;;6.80;1.98;;;4.90;99.90;;;;;;7532350;19;20014;-73
2023/11/08 03:58:50;;;;;;;3.03;1.48;;;4.90;99.90;;;;;;7527900;19;20017;-74
2023/11/08 04:01:22;;;;;;;6.40;1.58;;;4.90;99.90;;;;;;7492746;19;20011;-74
2023/11/08 04:03:55;;;;;;;4.00;1.75;;;4.90;99.90;;;;;;7527166;19;20481;-73
2023/11/08 04:06:27;;;;;;;3.15;1.38;;;4.80;99.90;;;;;;7533195;19;20022;-72
2023/11/08 04:09:00;;;;;;;5.38;1.80;;;4.90;99.90;;;;;;7535478;19;20021;-73
2023/11/08 04:11:32;;;;;;;5.68;1.40;;;4.80;99.90;;;;;;7521015;19;20014;-74
2023/11/08 04:14:06;;;;;;;3.93;1.70;;;4.80;99.90;;;;;;7528284;19;20109;-73
2023/11/08 04:16:39;;;;;;;3.22;1.60;;;4.70;99.90;;;;;;7514191;19;20061;-73
2023/11/08 04:19:12;;;;;;;3.45;1.40;;;4.80;99.90;;;;;;7531876;19;20014;-73
2023/11/08 04:21:44;;;;;;;4.00;2.07;;;4.70;99.90;;;;;;7515516;19;21372;-72
2023/11/08 04:24:17;;;;;;;7.50;1.67;;;4.70;99.90;;;;;;7511972;19;20018;-71
2023/11/08 04:26:51;;;;;;;6.50;1.83;;;4.70;99.90;;;;;;7514559;19;20556;-72
2023/11/08 04:29:25;;;;;;;2.47;1.50;;;4.70;99.90;;;;;;7521552;19;22359;-71
2023/11/08 04:31:57;;;;;;;1.85;0.90;;;4.70;99.90;;;;;;7515346;19;20048;-74
2023/11/08 04:34:30;;;;;;;3.83;1.50;;;4.70;99.90;;;;;;7512901;19;20018;-73
2023/11/08 04:37:06;;;;;;;5.72;1.50;;;4.60;99.90;;;;;;7529133;19;20018;-73
2023/11/08 04:39:40;;;;;;;3.85;1.70;;;4.60;99.90;;;;;;7539435;19;20014;-73
2023/11/08 04:42:14;;;;;;;1.80;1.25;;;4.60;99.90;;;;;;7514075;19;20022;-72
2023/11/08 04:44:47;;;;;;;5.05;1.45;;;4.50;99.90;;;;;;7528627;19;20018;-73
2023/11/08 04:47:21;;;;;;;5.00;1.98;;;4.30;99.90;;;;;;7521039;19;20028;-73
2023/11/08 04:49:53;;;;;;;6.45;1.50;;;4.30;99.90;;;;;;7532212;19;20136;-72
2023/11/08 04:52:25;;;;;;;5.33;1.47;;;4.20;99.90;;;;;;7528355;19;20010;-73
2023/11/08 04:54:58;;;;;;;2.72;1.70;;;4.20;99.90;;;;;;7504215;19;20686;-72
2023/11/08 04:57:32;;;;;;;2.22;1.63;;;4.20;99.90;;;;;;7529113;19;20014;-74
2023/11/08 05:00:05;;;;;;;3.47;1.90;;;4.10;99.90;;;;;;7517690;19;20388;-74
2023/11/08 05:02:38;;;;;;;2.28;1.45;;;4.10;99.90;;;;;;7536711;19;20021;-72
2023/11/08 05:05:12;;;;;;;5.65;2.20;;;4.10;99.90;;;;;;7511240;19;21366;-72
2023/11/08 05:07:46;;;;;;;5.57;2.80;;;4.20;99.90;;;;;;7544376;19;20014;-73
2023/11/08 05:10:19;;;;;;;3.65;2.00;;;4.20;99.90;;;;;;7495439;19;21341;-72
2023/11/08 05:12:52;;;;;;;4.03;2.50;;;4.20;99.90;;;;;;7522626;19;20045;-72
2023/11/08 05:15:25;;;;;;;4.18;2.15;;;4.30;99.90;;;;;;7511898;19;20021;-72
2023/11/08 05:17:58;;;;;;;4.78;2.33;;;4.30;99.90;;;;;;7507646;19;20022;-72
2023/11/08 05:20:30;;;;;;;6.50;2.30;;;4.30;99.90;;;;;;7532597;19;20018;-72
2023/11/08 05:23:03;;;;;;;3.70;1.77;;;4.40;99.90;;;;;;7499736;19;20029;-72
2023/11/08 05:25:40;;;;;;;5.10;2.30;;;4.40;99.90;;;;;;7515594;19;20014;-72
2023/11/08 05:28:12;;;;;;;3.22;1.88;;;4.40;99.90;;;;;;7506161;19;20021;-72
2023/11/08 05:30:45;;;;;;;7.85;2.28;;;4.40;99.90;;;;;;7495081;19;20014;-73
2023/11/08 05:33:19;;;;;;;4.07;2.30;;;4.40;99.90;;;;;;7500646;19;20102;-73
2023/11/08 05:35:51;;;;;;;6.95;2.70;;;4.50;99.90;;;;;;7502876;19;20056;-73
2023/11/08 05:38:24;;;;;;;4.05;1.90;;;4.40;99.90;;;;;;7469066;19;20044;-74
2023/11/08 05:40:56;;;;;;;4.17;1.87;;;4.40;99.90;;;;;;7455048;19;20029;-74
2023/11/08 05:43:29;;;;;;;4.63;1.88;;;4.30;99.90;;;;;;7491346;19;21328;-73
2023/11/08 05:46:01;;;;;;;2.15;1.60;;;4.30;99.90;;;;;;7486250;19;20654;-73
2023/11/08 05:48:33;;;;;;;3.63;1.60;;;4.20;99.90;;;;;;7492498;19;20336;-73
2023/11/08 05:51:06;;;;;;;1.52;1.20;;;4.30;99.90;;;;;;7483938;19;20108;-75
2023/11/08 05:53:39;;;;;;;2.13;1.60;;;4.30;99.90;;;;;;7490671;19;21219;-72
2023/11/08 05:56:13;;;;;;;3.70;1.90;;;4.20;99.90;;;;;;7487941;19;20038;-75
2023/11/08 05:58:45;;;;;;;4.07;2.15;;;4.30;99.90;;;;;;7494442;19;21693;-76
2023/11/08 06:01:21;;;;;;;3.38;1.67;;;4.40;99.90;;;;;;7453396;19;21088;-74
2023/11/08 06:03:54;;;;;;;1.98;1.20;;;4.40;99.90;;;;;;7497417;19;20025;-75
2023/11/08 06:06:27;;;;;;;3.67;1.70;;;4.40;99.90;;;;;;7482535;19;20010;-73
2023/11/08 06:09:00;;;;;;;;;;;4.40;99.90;;;;;;7493476;19;21320;-73
2023/11/08 06:11:32;;;;;;;4.65;1.63;;;4.50;99.90;;;;;;7464036;19;19926;-73
2023/11/08 06:14:05;;;;;;;4.35;1.90;;;4.50;99.90;;;;;;7479079;19;20014;-72
2023/11/08 06:16:40;;;;;;;9.97;1.87;;;4.50;99.90;;;;;;7493307;19;20022;-73
2023/11/08 06:19:13;;;;;;;2.15;1.70;;;4.50;99.90;;;;;;7439855;19;20884;-73
2023/11/08 06:21:48;;;;;;;2.92;1.48;;;4.50;99.90;;;;;;7439269;19;20101;-74
2023/11/08 06:24:21;;;;;;;4.40;1.70;;;4.60;99.90;;;;;;7464231;19;20011;-74
2023/11/08 06:26:54;;;;;;;4.22;1.20;;;4.60;99.90;;;;;;7447394;19;20018;-74
2023/11/08 06:29:26;;;;;;;2.90;1.85;;;4.70;99.90;;;;;;7413990;19;20022;-74
2023/11/08 06:31:59;;;;;;;2.28;1.35;;;4.80;99.90;;;;;;7476195;19;22602;-74
2023/11/08 06:34:32;;;;;;;2.03;1.55;;;4.80;99.90;;;;;;7482900;19;20010;-73
2023/11/08 06:37:05;;;;;;;3.20;1.75;;;4.90;99.90;;;;;;7504790;19;20018;-74
2023/11/08 06:39:42;;;;;;;2.58;1.83;;;5.00;99.90;;;;;;7505285;19;20014;-73
2023/11/08 06:42:15;;;;;;;7.25;1.67;;;5.00;99.90;;;;;;7492069;19;20021;-73
2023/11/08 06:44:47;;;;;;;4.30;1.70;;;5.00;99.90;;;;;;7527451;19;20022;-73
2023/11/08 06:47:21;;;;;;;2.30;1.20;;;5.10;99.90;;;;;;7513340;19;20271;-73
2023/11/08 06:49:54;;;;;;;2.65;1.30;;;5.10;99.90;;;;;;7537552;19;20019;-75
2023/11/08 06:52:27;;;;;;;4.90;1.58;;;5.20;99.90;;;;;;7509048;19;20563;-76
2023/11/08 06:54:59;;;;;;;5.07;2.22;;;5.20;99.90;;;;;;7535542;19;20048;-74
2023/11/08 06:57:32;;;;;;;6.87;1.90;;;5.20;99.90;;;;;;7506315;19;20057;-75
2023/11/08 07:00:07;;;;;;;4.60;2.90;;;5.30;99.90;;;;;;7502524;19;20068;-76
2023/11/08 07:02:39;;;;;;;3.17;1.67;;;5.20;99.90;;;;;;7520435;19;20283;-76
2023/11/08 07:05:12;;;;;;;1.73;1.20;;;5.20;99.90;;;;;;7514857;19;20010;-76
2023/11/08 07:07:47;;;;;;;4.35;1.75;;;5.30;99.90;;;;;;7525576;19;20021;-75
2023/11/08 07:10:20;;;;;;;5.68;1.98;;;5.40;99.90;;;;;;7485568;19;20033;-75
2023/11/08 07:12:55;;;;;;;2.85;1.17;;;5.40;99.90;;;;;;7496243;19;20010;-74
2023/11/08 07:15:27;;;;;;;4.03;1.40;;;5.50;99.90;;;;;;7518754;19;20010;-75
2023/11/08 07:18:00;;;;;;;2.92;0.98;;;5.60;99.90;;;;;;7528273;19;20015;-75
2023/11/08 07:20:33;;;;;;;4.03;1.90;;;5.60;99.90;;;;;;7539326;19;20014;-76
2023/11/08 07:23:05;;;;;;;1.67;1.13;;;5.60;99.90;;;;;;7497052;19;20014;-75
2023/11/08 07:25:38;;;;;;;2.15;1.40;;;5.70;99.90;;;;;;7531839;19;20021;-75
2023/11/08 07:28:10;;;;;;;5.95;1.25;;;5.70;99.90;;;;;;7525252;19;20496;-75
2023/11/08 07:30:43;;;;;;;2.28;1.58;;;5.70;99.90;;;;;;7532463;19;20014;-75
2023/11/08 07:33:17;;;;;;;2.28;1.38;;;5.70;99.90;;;;;;7535920;19;20371;-75
2023/11/08 07:35:50;;;;;;;3.78;1.70;;;5.80;99.90;;;;;;7506546;19;20018;-75
2023/11/08 07:38:23;;;;;;;3.45;1.77;;;5.80;99.90;;;;;;7520058;19;20019;-75
2023/11/08 07:40:55;;;;;;;4.75;2.65;;;5.90;99.90;;;;;;7502839;19;20027;-74
2023/11/08 07:43:29;;;;;;;3.25;2.00;;;5.90;99.90;;;;;;7527582;19;20099;-75
2023/11/08 07:46:02;;;;;;;4.22;1.60;;;6.00;99.90;;;;;;7538298;19;20056;-75
2023/11/08 07:48:34;;;;;;;1.52;1.17;;;6.00;99.90;;;;;;7515858;19;20014;-75
2023/11/08 07:51:09;;;;;;;2.92;1.65;;;6.10;99.90;;;;;;7504853;19;20846;-75
2023/11/08 07:53:41;;;;;;;4.05;1.92;;;6.10;99.90;;;;;;7519812;19;20802;-75
2023/11/08 07:56:15;;;;;;;4.22;1.63;;;6.10;99.90;;;;;;7515619;19;20010;-75
2023/11/08 07:58:48;;;;;;;9.88;3.20;;;6.20;99.90;;;;;;7498990;19;20014;-75
2023/11/08 08:01:21;;;;;;;23.30;6.63;;;6.20;99.90;;;;;;7463333;19;20022;-75
2023/11/08 08:03:54;;;;;;;10.90;3.50;;;6.30;99.90;;;;;;7548738;19;22242;-75
2023/11/08 08:06:26;;;;;;;13.65;4.05;;;6.30;99.90;;;;;;7541956;19;20010;-75
2023/11/08 08:08:59;;;;;;;10.27;3.28;;;6.50;99.90;;;;;;7546512;19;20023;-75
2023/11/08 08:11:32;;;;;;;7.78;3.20;;;6.50;99.90;;;;;;7536783;19;20014;-74
2023/11/08 08:14:04;;;;;;;8.40;2.92;;;6.50;99.90;;;;;;7549491;19;20101;-75
2023/11/08 08:16:39;;;;;;;4.43;2.10;;;6.60;99.90;;;;;;7536476;19;20121;-75
2023/11/08 08:19:12;;;;;;;7.43;2.40;;;6.60;99.90;;;;;;7553513;19;20381;-75
2023/11/08 08:21:45;;;;;;;5.40;1.75;;;6.60;99.90;;;;;;7537663;19;20015;-75
2023/11/08 08:24:20;;;;;;;7.38;2.33;;;6.60;99.90;;;;;;7549999;19;20028;-76
2023/11/08 08:26:52;;;;;;;2.00;1.20;;;6.60;99.90;;;;;;7532222;19;20098;-75
2023/11/08 08:29:27;;;;;;;1.65;0.93;;;6.70;99.90;;;;;;7547856;19;21143;-75
2023/11/08 08:31:59;;;;;;;4.05;1.50;;;6.70;99.90;;;;;;7555856;19;20015;-75
2023/11/08 08:34:33;;;;;;;4.03;1.30;;;6.70;99.90;;;;;;7547585;19;20014;-75
2023/11/08 08:37:08;;;;;;;2.85;1.10;;;6.70;99.90;;;;;;7550341;19;20011;-75
2023/11/08 08:39:41;;;;;;;3.05;1.25;;;6.80;99.90;;;;;;7538429;19;24354;-75
2023/11/08 08:42:14;;;;;;;2.20;1.30;;;6.90;99.90;;;;;;7548275;19;20022;-76
2023/11/08 08:44:47;;;;;;;3.00;1.17;;;6.90;99.90;;;;;;7513171;19;20011;-75
2023/11/08 08:47:19;;;;;;;2.47;1.25;;;7.00;99.90;;;;;;7540393;19;20019;-75
2023/11/08 08:50:01;;;;;;;3.17;1.33;;;7.00;99.90;;;;;;7545295;19;20077;-75
2023/11/08 08:52:34;;;;;;;1.75;1.45;;;7.10;99.90;;;;;;7534973;19;20020;-75
2023/11/08 08:55:08;;;;;;;2.03;1.17;;;7.10;99.90;;;;;;7504179;19;20579;-74
2023/11/08 08:57:43;;;;;;;3.17;1.52;;;7.20;99.90;;;;;;7510360;19;20018;-74
2023/11/08 09:00:18;;;;;;;3.38;1.20;;;7.30;99.90;;;;;;7509561;19;20643;-73
2023/11/08 09:02:52;;;;;;;3.22;1.30;;;7.40;99.90;;;;;;7507923;19;20025;-72
2023/11/08 09:05:25;;;;;;;3.05;1.77;;;7.60;99.90;;;;;;7508777;19;20010;-73
2023/11/08 09:07:58;;;;;;;3.33;1.47;;;7.50;99.90;;;;;;7510992;19;20021;-73
2023/11/08 09:10:30;;;;;;;1.90;1.13;;;7.50;99.90;;;;;;7505635;19;20282;-73
2023/11/08 09:13:02;;;;;;;2.30;1.38;;;7.70;99.90;;;;;;7518308;19;20129;-73
2023/11/08 09:15:36;;;;;;;4.97;1.30;;;7.90;99.90;;;;;;7507050;19;20126;-72
2023/11/08 09:18:08;;;;;;;;;;;8.00;99.90;;;;;;7527346;19;20020;-73
2023/11/08 09:20:41;;;;;;;4.50;1.38;;;8.20;99.90;;;;;;7493251;19;19946;-73
2023/11/08 09:23:14;;;;;;;2.38;1.45;;;8.20;99.90;;;;;;7497445;19;20059;-73
2023/11/08 09:25:47;;;;;;;5.90;1.30;;;8.20;99.90;;;;;;7515522;19;20026;-72
2023/11/08 09:28:20;;;;;;;7.72;1.70;;;8.30;99.90;;;;;;7526579;19;20037;-73
2023/11/08 09:30:54;;;;;;;2.20;1.40;;;8.30;99.90;;;;;;7502485;19;21706;-73
2023/11/08 09:33:27;;;;;;;4.10;1.15;;;8.40;99.90;;;;;;7500504;19;20097;-74
2023/11/08 09:36:00;;;;;;;2.45;1.42;;;8.50;99.90;;;;;;7508565;19;22746;-73
2023/11/08 09:38:35;;;;;;;3.70;2.05;;;8.50;99.90;;;;;;7525994;19;20014;-73
2023/11/08 09:41:08;;;;;;;5.30;1.30;;;8.60;99.90;;;;;;7544065;19;20006;-73
2023/11/08 09:43:42;;;;;;;5.10;2.08;;;8.70;99.90;;;;;;7534804;19;20496;-73
2023/11/08 09:46:18;;;;;;;2.35;1.02;;;8.80;99.90;;;;;;7524693;19;20019;-74
2023/11/08 09:48:54;;;;;;;4.78;1.45;;;8.90;99.90;;;;;;7498489;19;21597;-74
2023/11/08 09:51:27;;;;;;;1.85;0.90;;;9.00;99.90;;;;;;7514102;19;22266;-74
2023/11/08 09:54:03;;;;;;;2.45;1.10;;;9.10;99.90;;;;;;7515964;19;20019;-74
2023/11/08 09:56:35;;;;;;;2.10;1.10;;;9.10;99.90;;;;;;7520942;19;20077;-74
2023/11/08 09:59:08;;;;;;;3.85;1.00;;;9.10;99.90;;;;;;7529390;19;20020;-74
2023/11/08 10:01:44;;;;;;;3.15;1.08;;;9.20;99.90;;;;;;7533018;19;20900;-74
2023/11/08 10:04:18;;;;;;;3.42;0.82;;;9.20;99.90;;;;;;7536962;19;20407;-74
2023/11/08 10:07:00;;;;;;;2.42;0.88;;;9.30;99.90;;;;;;7506913;19;20053;-75
2023/11/08 10:09:36;;;;;;;4.60;1.50;;;9.30;99.90;;;;;;7497436;19;20932;-76
2023/11/08 10:12:09;;;;;;;3.10;1.27;;;9.40;99.90;;;;;;7501283;19;20022;-73
2023/11/08 10:14:44;;;;;;;2.65;1.10;;;9.40;99.90;;;;;;7519519;19;20011;-74
2023/11/08 10:17:17;;;;;;;4.43;1.10;;;9.50;99.90;;;;;;7522445;19;20102;-74
2023/11/08 10:20:17;;;;;;;7.65;1.10;;;9.50;99.90;;;;;;7521532;19;20427;-74
2023/11/08 10:22:50;;;;;;;3.05;1.17;;;9.60;99.90;;;;;;7504070;19;20014;-73
2023/11/08 10:25:27;;;;;;;7.18;1.20;;;9.70;99.90;;;;;;7512920;19;20021;-74
2023/11/08 10:28:03;;;;;;;2.72;0.80;;;9.80;99.90;;;;;;7495144;19;20019;-74
2023/11/08 10:30:39;;;;;;;5.50;1.17;;;9.80;99.90;;;;;;7516812;19;20022;-74
2023/11/08 10:33:13;;;;;;;4.78;1.05;;;9.90;99.90;;;;;;7536620;19;20382;-74
2023/11/08 10:35:46;;;;;;;3.80;1.30;;;9.90;99.90;;;;;;7539657;19;20011;-74
2023/11/08 10:38:19;;;;;;;1.92;1.10;;;10.00;99.90;;;;;;7537271;19;20038;-74
2023/11/08 10:40:51;;;;;;;0.65;0.60;;;10.10;99.90;;;;;;7531194;19;20033;-74
2023/11/08 10:43:24;;;;;;;4.07;1.02;;;10.20;99.90;;;;;;7547875;19;20015;-75
2023/11/08 10:45:56;;;;;;;4.18;0.80;;;10.20;99.90;;;;;;7551725;19;21464;-75
2023/11/08 10:48:29;;;;;;;4.32;1.58;;;10.20;99.90;;;;;;7552813;19;20010;-75
2023/11/08 10:51:01;;;;;;;3.63;1.10;;;10.10;99.90;;;;;;7558478;19;20619;-75
2023/11/08 10:53:35;;;;;;;2.53;0.95;;;10.10;99.90;;;;;;7534635;19;20081;-75
2023/11/08 10:56:08;;;;;;;5.30;1.20;;;10.10;99.90;;;;;;7554040;19;20041;-73
2023/11/08 10:58:46;;;;;;;6.05;1.00;;;10.10;99.90;;;;;;7554265;19;20022;-73
2023/11/08 11:01:19;;;;;;;3.90;0.90;;;10.20;99.90;;;;;;7512574;19;20102;-74
2023/11/08 11:04:11;;;;;;;2.35;1.10;;;10.40;99.90;;;;;;7512122;19;21694;-73
2023/11/08 11:06:48;;;;;;;3.63;1.27;;;10.40;99.90;;;;;;7540253;19;20017;-73
2023/11/08 11:09:21;;;;;;;5.80;0.93;;;10.40;99.90;;;;;;7539783;19;20021;-73
2023/11/08 11:12:00;;;;;;;1.77;0.75;;;10.50;99.90;;;;;;7512473;19;21354;-74
2023/11/08 11:14:46;;;;;;;4.80;0.88;;;10.70;99.90;;;;;;7521130;19;20018;-73
2023/11/08 11:17:32;;;;;;;4.50;0.98;;;11.80;99.10;;;;;;7523732;19;20010;-74
2023/11/08 11:20:11;;;;;;;1.60;0.90;;;12.00;98.00;;;;;;7537488;19;20034;-72
2023/11/08 11:22:45;;;;;;;4.50;1.38;;;13.60;95.80;;;;;;7514824;19;20011;-71
2023/11/08 11:25:37;;;;;;;;;;;13.50;94.40;;;;;;7525865;19;20484;-71
2023/11/08 11:28:09;;;;;;;2.20;0.52;;;13.00;94.70;;;;;;7518428;19;19914;-73
2023/11/08 11:30:42;;;;;;;4.57;1.10;;;13.00;94.10;;;;;;7489893;19;21551;-73
2023/11/08 11:33:32;;;;;;;4.80;1.20;;;15.70;91.30;;;;;;7527272;19;20010;-72
2023/11/08 11:36:04;;;;;;;8.85;1.48;;;17.20;84.10;;;;;;7538153;19;20058;-73
2023/11/08 11:38:39;;;;;;;2.53;1.00;;;17.70;78.80;;;;;;7515848;19;20025;-73
2023/11/08 11:41:20;;;;;;;5.10;1.27;;;19.90;72.70;;;;;;7539434;19;20014;-73
2023/11/08 11:43:58;;;;;;;0.93;0.73;;;21.30;66.20;;;;;;7522032;19;20007;-73
2023/11/08 11:46:33;;;;;;;4.22;1.08;;;17.40;70.00;;;;;;7540556;19;20014;-73
2023/11/08 11:49:11;;;;;;;4.05;1.05;;;15.30;76.20;;;;;;7549492;19;20014;-73
2023/11/08 11:51:44;;;;;;;4.40;1.30;;;13.70;79.50;;;;;;7532210;19;20022;-75
2023/11/08 11:54:17;;;;;;;1.98;0.93;;;12.80;84.40;;;;;;7516333;19;20010;-72
2023/11/08 11:56:49;;;;;;;5.78;1.10;;;12.90;85.40;;;;;;7515372;19;20416;-72
2023/11/08 11:59:22;;;;;;;3.10;0.85;;;12.60;84.80;;;;;;7523051;19;20145;-72
2023/11/08 12:01:54;;;;;;;4.40;1.20;;;12.20;86.20;;;;;;7515374;19;20022;-72
2023/11/08 12:04:27;;;;;;;3.10;1.02;;;12.00;87.30;;;;;;7524865;19;20057;-72
2023/11/08 12:07:00;;;;;;;2.30;1.20;;;11.80;87.80;;;;;;7520468;19;20014;-72
2023/11/08 12:09:34;;;;;;;;;;;12.60;86.50;;;;;;7525962;19;20019;-72
2023/11/08 12:12:07;;;;;;;3.30;1.27;;;12.70;85.40;;;;;;7530965;19;20440;-72
2023/11/08 12:14:47;;;;;;;4.03;0.90;;;12.90;87.00;;;;;;7521919;19;20037;-72
2023/11/08 12:17:20;;;;;;;5.03;1.35;;;13.30;84.50;;;;;;7535356;19;20025;-73
2023/11/08 12:19:56;;;;;;;7.13;1.25;;;12.80;85.60;;;;;;7505746;19;20022;-72
2023/11/08 12:22:30;;;;;;;;;;;12.40;86.70;;;;;;7513706;19;20912;-73
2023/11/08 12:25:03;;;;;;;9.35;1.30;;;12.30;86.50;;;;;;7479133;19;19929;-73
2023/11/08 12:27:36;;;;;;;5.78;1.20;;;12.10;86.80;;;;;;7483405;19;21310;-73
2023/11/08 12:30:09;;;;;;;2.53;1.13;;;11.90;87.60;;;;;;7446352;19;20037;-74
2023/11/08 12:32:42;;;;;;;3.55;0.90;;;11.80;88.10;;;;;;7477155;19;21452;-74
2023/11/08 12:35:18;;;;;;;2.03;0.95;;;12.00;88.00;;;;;;7496244;19;20014;-72
2023/11/08 12:37:56;;;;;;;4.15;0.90;;;12.50;86.90;;;;;;7506140;19;20018;-71
2023/11/08 12:40:29;;;;;;;5.13;1.00;;;12.70;86.50;;;;;;7517704;19;21714;-74
2023/11/08 12:43:12;;;;;;;3.63;1.13;;;12.80;86.40;;;;;;7491168;19;20025;-74
2023/11/08 12:46:06;;;;;;;1.33;0.90;;;13.60;83.80;;;;;;7494843;19;20014;-73
2023/11/08 12:48:59;;;;;;;6.28;1.00;;;14.20;81.90;;;;;;7498836;19;20348;-74
2023/11/08 12:51:32;;;;;;;2.65;0.90;;;13.70;81.90;;;;;;7492939;19;20006;-72
2023/11/08 12:54:08;;;;;;;5.10;1.10;;;13.10;85.60;;;;;;7492737;19;20003;-73
2023/11/08 12:56:41;;;;;;;1.88;0.75;;;12.60;85.50;;;;;;7520957;19;20018;-73
2023/11/08 12:59:18;;;;;;;;;;;12.70;84.10;;;;;;7550325;19;20026;-72
2023/11/08 13:02:10;;;;;;;1.85;0.93;;;12.40;84.70;;;;;;7547089;19;19918;-74
2023/11/08 13:04:43;;;;;;;4.50;0.80;;;12.20;86.30;;;;;;7537968;19;20121;-74
2023/11/08 13:07:16;;;;;;;1.07;0.83;;;12.10;87.40;;;;;;7547561;19;22116;-74
2023/11/08 13:09:48;;;;;;;3.13;0.90;;;12.10;86.70;;;;;;7536536;19;20018;-74
2023/11/08 13:12:21;;;;;;;3.75;1.10;;;12.00;86.80;;;;;;7553184;19;20339;-74
2023/11/08 13:14:53;;;;;;;1.98;0.93;;;12.00;88.30;;;;;;7521211;19;20030;-74
2023/11/08 13:17:26;;;;;;;4.00;0.73;;;11.80;87.30;;;;;;7505038;19;20509;-75
2023/11/08 13:19:59;;;;;;;3.05;1.00;;;11.80;88.90;;;;;;7517012;19;20015;-73
2023/11/08 13:22:33;;;;;;;1.25;0.80;;;11.80;89.10;;;;;;7503603;19;20014;-75
2023/11/08 13:25:07;;;;;;;3.70;0.80;;;11.80;88.90;;;;;;7534831;19;20040;-75
2023/11/08 13:27:39;;;;;;;5.45;0.68;;;11.80;90.40;;;;;;7517995;19;20014;-75
2023/11/08 13:30:13;;;;;;;2.28;1.10;;;12.10;88.90;;;;;;7498632;19;20018;-75
2023/11/08 13:32:46;;;;;;;6.80;1.38;;;12.30;89.50;;;;;;7496505;19;20109;-75